Time;durP1;ratioP1;P1;durP2;ratioP2;P2;SDS_P1;SDS_P2;PMS_P1;PMS_P2;Temp;Humidity;BMP_temperature;BMP_pressure;BME280_temperature;BME280_humidity;BME280_pressure;Samples;Min_cycle;Max_cycle;Signal;HPM_P1;HPM_P2
2023/04/13 00:00:40;;;;;;;7.87;5.40;;;;;;;9.24;38.91;94151.44;4988728;28;20306;-70
2023/04/13 00:03:07;;;;;;;8.97;4.97;;;;;;;9.18;38.78;94144.22;4993386;28;20215;-70
2023/04/13 00:05:33;;;;;;;8.23;5.23;;;;;;;9.05;38.89;94131.59;4991487;28;20584;-70
2023/04/13 00:08:01;;;;;;;5.77;5.17;;;;;;;8.89;39.21;94130.78;5000291;28;20223;-70
2023/04/13 00:10:30;;;;;;;8.53;5.60;;;;;;;9.04;38.88;94137.84;4986997;28;20246;-71
2023/04/13 00:12:57;;;;;;;8.67;5.73;;;;;;;9.04;38.85;94147.53;4990124;28;20544;-70
2023/04/13 00:15:23;;;;;;;9.53;5.50;;;;;;;9.02;38.91;94152.09;4997391;28;20183;-70
2023/04/13 00:17:49;;;;;;;8.83;6.10;;;;;;;9.01;39.03;94160.97;5004026;28;20235;-71
2023/04/13 00:20:14;;;;;;;9.83;6.10;;;;;;;8.97;39.02;94164.88;4991387;28;20303;-71
2023/04/13 00:22:42;;;;;;;7.63;6.17;;;;;;;8.92;38.96;94167.97;4992014;28;20319;-71
2023/04/13 00:25:09;;;;;;;7.37;5.87;;;;;;;8.88;38.96;94171.09;4991689;28;20258;-71
2023/04/13 00:27:36;;;;;;;7.70;6.03;;;;;;;8.83;39.06;94168.97;4991436;28;20246;-70
2023/04/13 00:30:02;;;;;;;9.67;6.00;;;;;;;8.82;39.24;94173.38;4991831;28;20258;-69
2023/04/13 00:32:27;;;;;;;7.30;6.20;;;;;;;8.66;39.44;94167.28;4991390;28;20223;-69
2023/04/13 00:34:53;;;;;;;8.23;5.40;;;;;;;8.61;39.31;94157.31;4991411;28;20219;-69
2023/04/13 00:37:20;;;;;;;6.30;5.10;;;;;;;8.54;39.63;94166.78;4991154;28;20220;-70
2023/04/13 00:39:45;;;;;;;8.90;5.23;;;;;;;8.51;39.72;94167.91;4989709;28;20231;-70
2023/04/13 00:42:12;;;;;;;6.17;5.13;;;;;;;8.49;39.62;94151.53;4991299;28;20190;-70
2023/04/13 00:44:38;;;;;;;11.27;5.73;;;;;;;8.47;39.81;94160.53;4991844;28;20192;-70
2023/04/13 00:47:04;;;;;;;6.47;4.87;;;;;;;8.43;39.92;94164.47;4987108;28;20231;-70
2023/04/13 00:49:32;;;;;;;6.07;5.10;;;;;;;8.43;39.92;94153.97;4991711;28;20234;-70
2023/04/13 00:52:09;;;;;;;5.57;3.77;;;;;;;8.41;39.09;94156.75;4991256;28;20254;-70
2023/04/13 00:54:35;;;;;;;7.37;4.30;;;;;;;8.41;39.03;94163.78;4990963;28;20237;-69
2023/04/13 00:57:00;;;;;;;5.87;2.97;;;;;;;8.33;38.99;94156.69;4991975;28;20287;-70
2023/04/13 00:59:28;;;;;;;4.07;2.80;;;;;;;8.41;38.48;94161.16;4991231;28;20223;-70
2023/04/13 01:01:57;;;;;;;3.40;2.77;;;;;;;8.38;38.50;94164.91;4991336;28;20223;-70
2023/04/13 01:04:26;;;;;;;4.57;2.70;;;;;;;8.37;38.47;94171.94;4990643;28;20319;-70
2023/04/13 01:07:08;;;;;;;3.13;2.53;;;;;;;8.27;38.46;94155.53;4987688;28;20315;-69
2023/04/13 01:09:42;;;;;;;4.63;3.10;;;;;;;8.25;38.34;94162.72;4990539;28;20293;-70
2023/04/13 01:12:27;;;;;;;4.63;2.60;;;;;;;8.22;38.61;94160.41;4975014;28;20187;-70
2023/04/13 01:15:07;;;;;;;2.80;2.40;;;;;;;8.07;38.73;94157.59;5005377;28;20349;-70
2023/04/13 01:17:36;;;;;;;4.13;2.43;;;;;;;8.04;39.31;94175.41;4991241;28;20215;-70
2023/04/13 01:20:15;;;;;;;7.07;2.97;;;;;;;8.09;39.00;94170.50;4983814;28;20252;-70
2023/04/13 01:23:08;;;;;;;3.67;2.70;;;;;;;8.01;39.48;94184.38;4959062;28;20228;-70
2023/04/13 01:25:46;;;;;;;4.37;2.80;;;;;;;8.09;38.96;94170.50;4983738;28;20227;-70
2023/04/13 01:28:16;;;;;;;5.07;2.77;;;;;;;7.97;39.10;94177.03;4986226;28;20247;-70
2023/04/13 01:30:44;;;;;;;5.33;2.80;;;;;;;7.85;39.32;94174.66;4988584;28;20309;-70
2023/04/13 01:33:10;;;;;;;3.00;2.70;;;;;;;7.88;39.60;94174.34;4970714;28;20198;-70
2023/04/13 01:35:37;;;;;;;7.60;3.57;;;;;;;7.88;39.15;94171.72;4991484;28;20187;-70
2023/04/13 01:38:03;;;;;;;5.57;3.30;;;;;;;7.92;39.31;94177.47;4960691;28;20264;-70
2023/04/13 01:40:30;;;;;;;7.47;3.17;;;;;;;7.80;39.87;94171.69;4980535;28;20219;-70
2023/04/13 01:42:56;;;;;;;5.93;2.47;;;;;;;7.86;39.55;94165.84;4988365;28;20262;-69
2023/04/13 01:45:24;;;;;;;3.50;2.63;;;;;;;7.90;39.18;94176.81;4980553;28;20223;-69
2023/04/13 01:48:21;;;;;;;4.80;2.77;;;;;;;7.83;39.37;94166.16;4977154;28;20239;-71
2023/04/13 01:50:52;;;;;;;3.63;2.53;;;;;;;7.76;39.13;94164.31;4991366;28;20222;-70
2023/04/13 01:53:24;;;;;;;3.60;2.37;;;;;;;7.65;38.82;94162.78;4991519;28;20222;-71
2023/04/13 01:55:49;;;;;;;2.73;2.10;;;;;;;7.58;38.21;94159.13;4994648;28;20219;-71
2023/04/13 01:58:18;;;;;;;3.03;2.40;;;;;;;7.62;38.04;94152.63;4994500;28;20460;-70
2023/04/13 02:00:44;;;;;;;3.00;2.23;;;;;;;7.81;37.98;94160.25;4994890;28;20227;-71
2023/04/13 02:03:11;;;;;;;2.67;1.83;;;;;;;7.71;38.21;94151.69;4994620;28;20184;-71
2023/04/13 02:05:37;;;;;;;2.33;1.83;;;;;;;7.80;38.21;94161.22;4992434;28;20247;-70
2023/04/13 02:08:04;;;;;;;3.57;2.30;;;;;;;7.67;38.30;94155.56;4995455;28;20222;-70
2023/04/13 02:10:35;;;;;;;2.30;2.10;;;;;;;7.65;38.59;94160.16;4981145;28;20309;-70
2023/04/13 02:13:02;;;;;;;4.73;2.70;;;;;;;7.66;38.79;94161.78;4993344;28;20227;-70
2023/04/13 02:15:28;;;;;;;3.07;2.33;;;;;;;7.50;38.82;94171.19;4992590;28;20340;-70
2023/04/13 02:17:54;;;;;;;3.13;2.13;;;;;;;7.56;38.65;94168.94;5002493;28;20203;-70
2023/04/13 02:20:19;;;;;;;4.07;2.23;;;;;;;7.56;38.81;94169.75;4987975;28;20303;-70
2023/04/13 02:22:45;;;;;;;5.00;2.97;;;;;;;7.49;39.39;94179.19;4977406;28;20223;-70
2023/04/13 02:25:11;;;;;;;4.97;3.40;;;;;;;7.21;40.45;94174.06;4994325;28;20354;-70
2023/04/13 02:27:38;;;;;;;5.13;3.50;;;;;;;7.23;41.13;94179.97;4994337;28;20218;-70
2023/04/13 02:30:13;;;;;;;3.60;2.83;;;;;;;7.21;41.20;94179.31;4987898;28;20195;-70
2023/04/13 02:32:43;;;;;;;3.40;2.63;;;;;;;7.25;41.14;94188.50;4989998;28;20311;-71
2023/04/13 02:35:10;;;;;;;6.33;3.17;;;;;;;7.14;41.12;94187.94;4986528;28;20306;-71
2023/04/13 02:37:38;;;;;;;4.43;2.90;;;;;;;7.09;41.29;94188.38;4988844;28;20230;-70
2023/04/13 02:40:07;;;;;;;5.13;2.90;;;;;;;7.07;41.75;94188.50;4993934;28;20229;-70
2023/04/13 02:42:33;;;;;;;4.97;3.20;;;;;;;7.05;41.81;94177.38;4978468;28;20303;-70
2023/04/13 02:44:58;;;;;;;5.97;2.70;;;;;;;7.03;42.07;94189.81;4977787;28;20290;-71
2023/04/13 02:47:25;;;;;;;8.30;3.10;;;;;;;7.01;42.66;94186.50;4994408;28;20519;-70
2023/04/13 02:49:51;;;;;;;5.90;3.10;;;;;;;7.00;42.34;94184.88;4990351;28;20223;-70
2023/04/13 02:52:16;;;;;;;7.60;3.30;;;;;;;7.09;41.91;94187.56;4987093;28;20240;-70
2023/04/13 02:54:42;;;;;;;4.00;2.70;;;;;;;7.08;41.65;94186.72;4999364;28;20313;-70
2023/04/13 02:57:12;;;;;;;8.83;3.17;;;;;;;7.15;41.53;94202.63;4994434;28;20188;-70
2023/04/13 02:59:38;;;;;;;4.63;2.93;;;;;;;6.92;41.84;94203.06;4991667;28;20227;-71
2023/04/13 03:02:04;;;;;;;4.57;2.60;;;;;;;7.03;41.31;94200.25;4989007;28;20244;-71
2023/04/13 03:04:29;;;;;;;4.23;2.90;;;;;;;6.99;40.72;94198.91;4992962;28;20258;-70
2023/04/13 03:06:55;;;;;;;6.27;2.67;;;;;;;7.04;39.62;94201.06;4994027;28;20762;-70
2023/04/13 03:09:22;;;;;;;7.23;3.17;;;;;;;7.00;40.55;94202.34;4993525;28;20198;-71
2023/04/13 03:11:48;;;;;;;7.80;2.87;;;;;;;6.52;41.89;94195.66;4994526;28;20202;-71
2023/04/13 03:14:20;;;;;;;6.03;3.00;;;;;;;6.68;41.78;94200.22;4993861;28;20223;-71
2023/04/13 03:16:50;;;;;;;4.77;3.13;;;;;;;6.66;42.50;94192.56;4993036;28;20227;-71
2023/04/13 03:19:16;;;;;;;7.60;3.50;;;;;;;6.69;42.35;94197.50;4993629;28;20342;-71
2023/04/13 03:21:45;;;;;;;6.50;3.43;;;;;;;6.80;42.11;94204.28;4993725;28;20254;-70
2023/04/13 03:24:11;;;;;;;7.03;3.23;;;;;;;6.81;41.89;94205.91;4993768;28;20206;-71
2023/04/13 03:26:37;;;;;;;6.67;3.27;;;;;;;6.84;42.11;94200.38;4993884;28;20195;-70
2023/04/13 03:29:03;;;;;;;17.83;5.43;;;;;;;6.50;43.00;94201.06;4992792;28;20227;-70
2023/04/13 03:31:29;;;;;;;15.20;4.53;;;;;;;6.57;42.92;94196.84;4993490;28;20223;-69
2023/04/13 03:33:56;;;;;;;8.37;4.73;;;;;;;6.53;43.69;94202.56;4993534;28;20230;-68
2023/04/13 03:36:22;;;;;;;8.40;4.70;;;;;;;6.53;43.79;94213.00;4993084;28;20234;-69
2023/04/13 03:38:47;;;;;;;6.93;5.00;;;;;;;6.49;44.35;94211.63;4996537;28;20303;-69
2023/04/13 03:41:13;;;;;;;9.43;5.00;;;;;;;6.46;44.77;94204.91;4990620;28;20227;-70
2023/04/13 03:43:38;;;;;;;7.30;5.10;;;;;;;6.49;44.96;94211.63;4992796;28;20227;-70
2023/04/13 03:46:04;;;;;;;17.03;5.53;;;;;;;6.53;44.72;94213.00;4993844;28;20300;-70
2023/04/13 03:48:30;;;;;;;16.70;5.93;;;;;;;6.58;44.65;94216.00;4991443;28;20227;-70
2023/04/13 03:50:55;;;;;;;8.23;5.47;;;;;;;6.59;45.11;94210.59;4993652;28;20215;-70
2023/04/13 03:53:21;;;;;;;12.80;6.40;;;;;;;6.51;45.39;94207.09;4992453;28;20222;-70
2023/04/13 03:55:46;;;;;;;10.40;6.03;;;;;;;6.54;45.26;94217.25;4992545;28;20238;-70
2023/04/13 03:58:12;;;;;;;16.37;6.30;;;;;;;6.53;44.45;94207.78;4992823;28;20317;-70
2023/04/13 04:00:38;;;;;;;18.23;7.27;;;;;;;6.43;44.72;94209.63;4992967;28;20235;-70
2023/04/13 04:03:03;;;;;;;13.70;6.00;;;;;;;6.42;44.54;94215.81;4993569;28;20215;-71
2023/04/13 04:05:29;;;;;;;19.07;6.53;;;;;;;6.54;44.15;94220.66;4992587;28;20250;-71
2023/04/13 04:07:54;;;;;;;18.07;5.70;;;;;;;6.56;44.72;94220.53;4992289;28;20219;-70
2023/04/13 04:10:19;;;;;;;9.03;5.27;;;;;;;6.45;44.78;94212.91;4992161;28;20234;-70
2023/04/13 04:12:45;;;;;;;13.47;5.70;;;;;;;6.38;44.48;94216.06;4992795;28;20223;-70
2023/04/13 04:15:10;;;;;;;8.80;5.07;;;;;;;6.43;44.53;94220.88;4991859;28;20202;-71
2023/04/13 04:17:36;;;;;;;8.33;4.53;;;;;;;6.49;44.84;94225.50;4992487;28;20203;-70
2023/04/13 04:20:02;;;;;;;13.07;6.40;;;;;;;6.49;44.78;94217.66;4992193;28;20318;-70
2023/04/13 04:22:28;;;;;;;15.63;5.30;;;;;;;6.44;44.69;94222.50;4992565;28;20641;-71
2023/04/13 04:24:58;;;;;;;17.30;5.13;;;;;;;6.48;43.80;94234.31;4983446;28;20228;-70
2023/04/13 04:27:25;;;;;;;15.83;6.43;;;;;;;6.55;44.46;94235.38;4987981;28;20230;-69
2023/04/13 04:29:51;;;;;;;10.80;6.30;;;;;;;6.65;44.80;94237.09;4993414;28;20254;-70
2023/04/13 04:32:18;;;;;;;16.67;7.20;;;;;;;6.67;44.63;94235.19;4993524;28;20254;-69
2023/04/13 04:34:45;;;;;;;13.73;7.07;;;;;;;6.69;44.38;94236.69;4992060;28;20227;-69
2023/04/13 04:37:12;;;;;;;20.30;6.27;;;;;;;6.62;43.62;94233.81;4991494;28;20231;-70
2023/04/13 04:39:43;;;;;;;14.27;6.73;;;;;;;6.67;43.88;94249.06;4990865;28;20219;-71
2023/04/13 04:42:09;;;;;;;23.17;7.17;;;;;;;6.73;43.94;94240.63;4991669;28;20195;-70
2023/04/13 04:44:36;;;;;;;16.10;6.73;;;;;;;6.83;43.77;94236.16;4991316;28;20227;-71
2023/04/13 04:47:02;;;;;;;14.20;6.73;;;;;;;6.89;43.73;94236.53;4990397;28;20290;-70
2023/04/13 04:49:29;;;;;;;17.37;6.00;;;;;;;6.98;43.93;94233.06;4991428;28;20311;-70
2023/04/13 04:51:54;;;;;;;11.70;5.90;;;;;;;7.00;44.14;94231.94;4991116;28;20219;-72
2023/04/13 04:54:20;;;;;;;14.53;7.23;;;;;;;6.71;45.49;94239.13;4995290;28;20191;-71
2023/04/13 04:56:47;;;;;;;15.90;7.10;;;;;;;6.82;45.59;94244.97;4993379;28;20187;-69
2023/04/13 04:59:12;;;;;;;9.53;5.20;;;;;;;6.84;44.50;94248.28;4988836;28;20223;-70
2023/04/13 05:01:38;;;;;;;8.63;4.90;;;;;;;7.02;43.73;94240.41;4991737;28;20459;-71
2023/04/13 05:04:05;;;;;;;7.13;4.70;;;;;;;7.03;43.74;94234.25;4991139;28;20243;-70
2023/04/13 05:06:32;;;;;;;6.83;4.23;;;;;;;7.17;43.19;94242.53;4988538;28;20239;-70
2023/04/13 05:09:00;;;;;;;5.33;4.70;;;;;;;7.21;43.26;94241.25;4992037;28;20183;-71
2023/04/13 05:11:29;;;;;;;7.83;4.40;;;;;;;7.25;42.35;94240.00;4990739;28;20362;-70
2023/04/13 05:13:55;;;;;;;7.07;4.33;;;;;;;7.42;42.62;94240.94;4989410;28;20222;-70
2023/04/13 05:16:22;;;;;;;8.07;4.23;;;;;;;7.45;41.61;94241.44;4991694;28;20270;-71
2023/04/13 05:18:48;;;;;;;7.20;4.33;;;;;;;7.57;41.51;94246.47;4991248;28;20231;-70
2023/04/13 05:21:14;;;;;;;6.90;4.13;;;;;;;7.64;41.31;94250.09;4991004;28;20195;-70
2023/04/13 05:23:41;;;;;;;7.93;4.50;;;;;;;7.59;41.37;94244.47;4991707;28;20192;-70
2023/04/13 05:26:11;;;;;;;5.13;4.63;;;;;;;7.73;40.79;94243.94;4988980;28;20228;-70
2023/04/13 05:28:40;;;;;;;7.10;4.10;;;;;;;7.78;40.70;94244.31;4990009;28;20230;-71
2023/04/13 05:31:07;;;;;;;5.67;3.77;;;;;;;7.88;40.25;94245.00;4990872;28;20285;-70
2023/04/13 05:33:33;;;;;;;4.80;3.37;;;;;;;7.77;40.36;94245.28;4989197;28;20227;-70
2023/04/13 05:36:00;;;;;;;5.97;3.90;;;;;;;7.84;40.26;94250.72;4991576;28;20270;-70
2023/04/13 05:38:25;;;;;;;9.13;4.50;;;;;;;7.86;40.04;94246.16;4989155;28;20234;-70
2023/04/13 05:40:52;;;;;;;7.57;4.50;;;;;;;8.04;39.97;94243.47;4990449;28;20227;-71
2023/04/13 05:43:18;;;;;;;6.13;4.10;;;;;;;8.07;40.52;94246.63;4991145;28;20219;-70
2023/04/13 05:45:44;;;;;;;8.57;4.60;;;;;;;8.02;39.97;94237.56;4989686;28;20231;-70
2023/04/13 05:48:09;;;;;;;5.47;3.90;;;;;;;8.18;39.44;94235.88;4989030;28;20180;-71
2023/04/13 05:50:35;;;;;;;6.53;4.27;;;;;;;8.06;40.15;94244.97;4991515;28;20215;-71
2023/04/13 05:53:00;;;;;;;6.57;4.40;;;;;;;8.17;40.15;94244.69;4990876;28;20227;-70
2023/04/13 05:55:26;;;;;;;10.13;4.50;;;;;;;8.32;39.64;94246.75;4991233;28;20235;-70
2023/04/13 05:57:52;;;;;;;7.27;4.47;;;;;;;8.44;38.99;94255.16;4990639;28;20238;-71
2023/04/13 06:00:19;;;;;;;7.83;3.80;;;;;;;8.48;38.56;94241.59;4990986;28;20265;-71
2023/04/13 06:02:47;;;;;;;8.73;3.87;;;;;;;8.56;38.05;94219.84;4976569;28;20210;-71
2023/04/13 06:05:14;;;;;;;5.97;3.73;;;;;;;8.61;38.24;94226.25;4999458;28;20228;-69
2023/04/13 06:07:43;;;;;;;5.73;3.97;;;;;;;8.64;37.97;94230.34;4989918;28;20223;-69
2023/04/13 06:10:11;;;;;;;7.13;3.80;;;;;;;8.72;37.79;94226.94;4990674;28;20223;-70
2023/04/13 06:12:36;;;;;;;7.67;3.50;;;;;;;8.63;37.68;94231.31;4982734;28;20304;-70
2023/04/13 06:15:03;;;;;;;8.50;4.43;;;;;;;8.73;38.12;94237.25;5002705;28;20604;-70
2023/04/13 06:17:28;;;;;;;6.33;3.33;;;;;;;8.69;36.71;94235.13;4990976;28;20250;-69
2023/04/13 06:19:54;;;;;;;7.27;3.90;;;;;;;8.48;37.31;94240.78;4990907;28;20306;-69
2023/04/13 06:22:21;;;;;;;10.17;4.27;;;;;;;8.65;37.77;94242.47;5005828;28;20219;-69
2023/04/13 06:24:47;;;;;;;5.10;4.37;;;;;;;8.73;38.05;94246.91;4987727;28;20219;-70
2023/04/13 06:27:12;;;;;;;6.53;4.23;;;;;;;8.59;38.33;94245.72;4990873;28;20284;-70
2023/04/13 06:29:39;;;;;;;10.47;6.70;;;;;;;8.63;38.66;94243.59;4990756;28;20322;-70
2023/04/13 06:32:05;;;;;;;16.90;5.23;;;;;;;8.67;37.93;94243.13;4987805;28;20228;-71
2023/04/13 06:34:30;;;;;;;8.70;4.50;;;;;;;8.79;37.60;94252.34;4996009;28;20223;-70
2023/04/13 06:36:56;;;;;;;7.93;4.43;;;;;;;8.90;36.86;94248.63;4985134;28;20227;-71
2023/04/13 06:39:21;;;;;;;7.10;4.40;;;;;;;8.92;37.02;94240.56;4987677;28;20219;-71
2023/04/13 06:41:47;;;;;;;9.47;4.47;;;;;;;9.06;37.05;94253.03;4995000;28;20200;-71
2023/04/13 06:44:13;;;;;;;8.00;4.40;;;;;;;9.09;36.83;94246.66;4994680;28;20223;-69
2023/04/13 06:46:38;;;;;;;7.18;4.07;;;;;;;9.21;36.06;94240.13;4994274;28;20227;-70
2023/04/13 06:49:04;;;;;;;8.43;4.60;;;;;;;9.19;36.64;94232.41;4994804;28;20278;-70
2023/04/13 06:51:30;;;;;;;7.87;4.10;;;;;;;9.29;36.10;94237.50;4992191;28;21508;-69
2023/04/13 06:53:55;;;;;;;7.23;4.07;;;;;;;9.40;35.63;94237.19;4994467;28;20199;-70
2023/04/13 06:56:21;;;;;;;8.40;4.83;;;;;;;9.44;35.66;94242.94;4993202;28;20223;-69
2023/04/13 06:58:46;;;;;;;11.07;4.60;;;;;;;9.42;35.59;94247.53;4993825;28;20334;-69
2023/04/13 07:01:12;;;;;;;11.35;4.38;;;;;;;9.46;35.37;94240.97;4994289;28;20239;-70
2023/04/13 07:03:37;;;;;;;7.33;4.30;;;;;;;9.54;35.59;94240.97;4993535;28;20297;-70
2023/04/13 07:06:04;;;;;;;7.97;4.60;;;;;;;9.62;35.39;94246.22;4987055;28;20196;-70
2023/04/13 07:08:31;;;;;;;7.00;4.28;;;;;;;9.77;35.32;94240.31;4970779;28;20211;-70
2023/04/13 07:10:57;;;;;;;5.13;4.23;;;;;;;9.71;35.68;94239.97;4992098;28;20289;-70
2023/04/13 07:13:24;;;;;;;8.40;4.10;;;;;;;9.80;34.90;94234.72;4993883;28;20230;-71
2023/04/13 07:15:50;;;;;;;16.57;4.23;;;;;;;9.55;34.97;94233.94;4994206;28;20227;-70
2023/04/13 07:18:16;;;;;;;8.63;4.20;;;;;;;9.49;35.53;94238.03;4993156;28;20207;-70
2023/04/13 07:20:41;;;;;;;10.67;4.53;;;;;;;9.68;35.46;94237.69;4994408;28;20187;-70
2023/04/13 07:23:07;;;;;;;8.63;5.50;;;;;;;9.78;35.32;94244.56;4993470;28;20262;-70
2023/04/13 07:25:34;;;;;;;12.10;4.55;;;;;;;9.85;35.21;94243.72;4987116;28;20224;-69
2023/04/13 07:27:59;;;;;;;9.87;4.30;;;;;;;10.04;35.16;94232.03;4993403;28;20309;-70
2023/04/13 07:30:25;;;;;;;4.80;3.57;;;;;;;10.19;34.60;94234.81;4988704;28;20188;-70
2023/04/13 07:32:52;;;;;;;6.70;3.45;;;;;;;10.25;34.28;94228.88;4990309;28;20183;-70
2023/04/13 07:35:17;;;;;;;8.85;4.30;;;;;;;10.32;34.29;94235.13;4990008;28;20238;-69
2023/04/13 07:37:45;;;;;;;7.28;3.45;;;;;;;10.34;33.88;94224.44;4991177;28;20232;-70
2023/04/13 07:40:11;;;;;;;8.00;4.20;;;;;;;10.28;33.82;94223.31;4991154;28;20235;-70
2023/04/13 07:42:36;;;;;;;6.82;3.92;;;;;;;10.26;33.88;94221.81;4993185;28;20219;-70
2023/04/13 07:45:01;;;;;;;11.87;3.67;;;;;;;10.36;33.80;94219.84;4993888;28;20183;-70
2023/04/13 07:47:27;;;;;;;6.00;3.90;;;;;;;10.16;34.22;94214.13;4993254;28;20230;-70
2023/04/13 07:49:53;;;;;;;6.77;3.63;;;;;;;10.35;34.17;94211.13;4991688;28;20303;-71
2023/04/13 07:52:21;;;;;;;7.80;4.40;;;;;;;10.50;34.11;94211.22;4988224;28;20227;-71
2023/04/13 07:54:47;;;;;;;7.68;4.00;;;;;;;10.57;34.13;94211.38;4990775;28;20284;-70
2023/04/13 07:57:12;;;;;;;9.03;4.37;;;;;;;10.72;33.89;94206.19;4992479;28;20195;-71
2023/04/13 07:59:38;;;;;;;6.83;3.60;;;;;;;10.88;33.44;94210.56;4993069;28;20215;-71
2023/04/13 08:02:04;;;;;;;8.77;4.03;;;;;;;10.97;32.92;94207.72;4990658;28;20222;-71
2023/04/13 08:04:30;;;;;;;5.83;4.20;;;;;;;10.99;33.11;94205.72;4987331;28;20231;-71
2023/04/13 08:06:56;;;;;;;7.93;3.72;;;;;;;11.06;33.13;94203.22;4994252;28;20277;-70
2023/04/13 08:09:22;;;;;;;7.60;3.17;;;;;;;11.08;32.78;94205.69;4989468;28;20187;-71
2023/04/13 08:11:48;;;;;;;4.68;3.05;;;;;;;11.20;32.36;94213.00;4990925;28;20198;-71
2023/04/13 08:14:14;;;;;;;6.78;3.47;;;;;;;11.09;32.07;94202.03;4987957;28;20293;-70
2023/04/13 08:16:40;;;;;;;5.60;3.17;;;;;;;11.17;32.05;94208.09;4991150;28;20219;-70
2023/04/13 08:19:06;;;;;;;4.60;3.33;;;;;;;11.25;31.86;94200.13;4990679;28;20242;-71
2023/04/13 08:21:31;;;;;;;7.53;2.90;;;;;;;11.36;31.53;94203.31;4988627;28;20227;-71
2023/04/13 08:23:57;;;;;;;7.65;3.47;;;;;;;11.30;31.90;94193.50;5000024;28;20194;-71
2023/04/13 08:26:23;;;;;;;5.83;2.80;;;;;;;11.40;32.09;94194.09;4991575;28;20216;-71
2023/04/13 08:28:51;;;;;;;11.05;3.88;;;;;;;11.48;32.17;94194.84;4988772;28;20223;-71
2023/04/13 08:31:17;;;;;;;6.30;3.47;;;;;;;11.56;32.20;94182.63;4992071;28;20246;-70
2023/04/13 08:33:43;;;;;;;5.28;3.15;;;;;;;11.61;31.74;94188.97;5007421;28;20223;-71
2023/04/13 08:36:08;;;;;;;6.75;3.50;;;;;;;11.61;32.00;94180.25;4992554;28;20202;-70
2023/04/13 08:38:34;;;;;;;4.90;3.30;;;;;;;11.70;32.22;94185.25;4991380;28;20231;-70
2023/04/13 08:41:02;;;;;;;7.72;3.45;;;;;;;11.81;31.42;94186.63;4994188;28;20220;-70
2023/04/13 08:43:27;;;;;;;7.43;3.33;;;;;;;11.87;31.69;94180.72;4993716;28;20234;-70
2023/04/13 08:45:53;;;;;;;5.68;3.20;;;;;;;12.00;31.70;94185.34;4988142;28;20223;-70
2023/04/13 08:48:21;;;;;;;6.15;3.50;;;;;;;12.07;31.74;94172.25;4991552;28;20219;-70
2023/04/13 08:50:51;;;;;;;11.27;3.88;;;;;;;12.05;31.94;94175.06;4993992;28;20254;-70
2023/04/13 08:53:17;;;;;;;6.50;3.22;;;;;;;12.07;31.62;94157.25;4992016;28;20708;-71
2023/04/13 08:55:46;;;;;;;8.57;3.83;;;;;;;12.15;31.57;94164.25;4992063;28;20307;-71
2023/04/13 08:58:13;;;;;;;6.30;3.50;;;;;;;12.25;31.75;94156.09;4991504;28;20250;-70
2023/04/13 09:00:42;;;;;;;6.25;3.42;;;;;;;12.32;31.59;94160.44;4991708;28;20226;-70
2023/04/13 09:03:12;;;;;;;8.27;3.50;;;;;;;12.44;31.70;94160.78;4974725;28;20201;-70
2023/04/13 09:05:40;;;;;;;10.00;4.35;;;;;;;12.49;31.62;94162.88;4991517;28;20247;-71
2023/04/13 09:08:06;;;;;;;4.75;3.55;;;;;;;12.64;31.59;94162.84;4991522;28;20211;-71
2023/04/13 09:10:33;;;;;;;9.82;3.78;;;;;;;12.68;30.95;94156.22;4991426;28;20226;-70
2023/04/13 09:12:59;;;;;;;7.18;3.05;;;;;;;12.77;31.25;94158.53;4992721;28;20223;-71
2023/04/13 09:15:25;;;;;;;6.82;3.40;;;;;;;12.83;31.26;94151.72;4990786;28;20265;-71
2023/04/13 09:17:51;;;;;;;9.30;3.30;;;;;;;12.99;30.81;94155.91;4990744;28;20231;-70
2023/04/13 09:20:21;;;;;;;8.73;3.42;;;;;;;13.02;30.80;94151.09;4991461;28;20306;-70
2023/04/13 09:22:50;;;;;;;7.93;3.20;;;;;;;13.12;31.09;94155.25;4982251;28;20289;-69
2023/04/13 09:25:24;;;;;;;4.55;3.20;;;;;;;13.30;30.83;94149.56;4988568;28;20228;-70
2023/04/13 09:27:51;;;;;;;4.97;3.33;;;;;;;13.44;31.47;94153.94;4979725;28;20220;-70
2023/04/13 09:30:20;;;;;;;7.55;3.00;;;;;;;13.61;30.40;94150.03;4991151;28;20187;-70
2023/04/13 09:32:46;;;;;;;8.75;3.83;;;;;;;13.74;30.69;94137.91;4976105;28;20208;-70
2023/04/13 09:35:12;;;;;;;6.75;3.53;;;;;;;13.82;30.43;94135.13;4991143;28;20215;-70
2023/04/13 09:37:41;;;;;;;7.78;3.35;;;;;;;13.95;30.18;94137.03;4991027;28;20219;-70
2023/04/13 09:40:10;;;;;;;9.30;3.28;;;;;;;14.10;30.10;94132.47;4975591;28;20219;-70
2023/04/13 09:42:36;;;;;;;6.22;3.60;;;;;;;14.29;30.17;94123.81;4991091;28;20234;-70
2023/04/13 09:45:02;;;;;;;5.90;3.40;;;;;;;14.34;30.04;94123.22;4991438;28;20191;-70
2023/04/13 09:47:36;;;;;;;5.38;4.13;;;;;;;14.59;29.43;94122.75;4967548;28;20231;-70
2023/04/13 09:50:03;;;;;;;6.80;4.10;;;;;;;14.60;29.75;94113.81;4980905;28;20235;-70
2023/04/13 09:52:29;;;;;;;6.85;3.20;;;;;;;14.76;29.45;94102.84;4990883;28;20246;-71
2023/04/13 09:54:59;;;;;;;6.25;3.78;;;;;;;14.98;29.23;94108.81;4990819;28;20539;-71
2023/04/13 09:57:29;;;;;;;5.32;3.80;;;;;;;15.11;28.98;94108.03;4999133;28;20184;-71
2023/04/13 10:00:13;;;;;;;6.90;3.50;;;;;;;15.21;28.95;94108.44;4988500;28;20184;-70
2023/04/13 10:02:39;;;;;;;7.85;3.88;;;;;;;15.20;29.03;94109.44;4989721;28;20223;-70
2023/04/13 10:05:08;;;;;;;7.72;3.15;;;;;;;15.29;28.31;94113.53;4990130;28;20231;-70
2023/04/13 10:07:36;;;;;;;8.85;3.60;;;;;;;15.42;28.76;94105.59;4992043;28;20211;-70
2023/04/13 10:10:02;;;;;;;5.22;3.33;;;;;;;15.53;28.48;94092.75;4975715;28;20220;-69
2023/04/13 10:12:30;;;;;;;10.13;3.83;;;;;;;15.66;28.12;94100.69;4993325;28;20246;-69
2023/04/13 10:15:12;;;;;;;8.25;3.50;;;;;;;15.61;28.24;94092.53;4998453;28;20210;-69
2023/04/13 10:17:54;;;;;;;7.32;3.90;;;;;;;15.90;28.38;94079.88;4991951;28;20215;-69
2023/04/13 10:20:20;;;;;;;8.50;4.20;;;;;;;16.00;28.06;94080.28;5001704;28;20220;-70
2023/04/13 10:22:46;;;;;;;5.22;3.78;;;;;;;16.06;28.57;94082.09;4995736;28;20219;-70
2023/04/13 10:25:13;;;;;;;7.20;4.07;;;;;;;16.39;28.29;94081.19;4994074;28;20242;-70
2023/04/13 10:27:40;;;;;;;6.72;3.90;;;;;;;16.48;28.03;94088.69;4994486;28;20258;-71
2023/04/13 10:30:14;;;;;;;6.80;4.20;;;;;;;16.63;27.64;94090.25;4977440;28;20196;-70
2023/04/13 10:32:41;;;;;;;5.63;3.70;;;;;;;16.88;27.47;94072.56;4988981;28;20228;-71
2023/04/13 10:35:11;;;;;;;8.15;3.80;;;;;;;16.96;26.88;94074.16;4993734;28;20223;-71
2023/04/13 10:37:38;;;;;;;6.55;4.22;;;;;;;16.92;26.88;94063.16;4993845;28;20215;-71
2023/04/13 10:40:06;;;;;;;8.68;4.18;;;;;;;17.05;27.48;94056.94;4993522;28;20230;-70
2023/04/13 10:42:43;;;;;;;7.70;4.00;;;;;;;17.21;27.65;94055.59;4991743;28;20348;-70
2023/04/13 10:45:25;;;;;;;7.55;3.85;;;;;;;17.38;26.97;94047.94;4985569;28;20183;-70
2023/04/13 10:47:51;;;;;;;7.32;5.45;;;;;;;17.66;26.73;94058.09;4992550;28;20211;-71
2023/04/13 10:50:26;;;;;;;7.00;4.07;;;;;;;17.73;26.39;94058.84;4993825;28;20223;-71
2023/04/13 10:53:05;;;;;;;11.57;3.97;;;;;;;17.78;26.73;94061.66;4977777;28;20698;-71
2023/04/13 10:55:32;;;;;;;5.75;3.35;;;;;;;17.88;25.56;94050.53;4993588;28;20246;-71
2023/04/13 10:58:00;;;;;;;6.80;3.58;;;;;;;17.91;25.47;94055.44;4991473;28;20231;-71
2023/04/13 11:00:29;;;;;;;7.22;3.67;;;;;;;17.83;25.72;94053.06;4993791;28;20282;-71
2023/04/13 11:02:56;;;;;;;6.90;3.58;;;;;;;17.85;26.05;94050.97;4994406;28;20183;-70
2023/04/13 11:05:24;;;;;;;10.05;3.80;;;;;;;18.06;25.99;94050.56;4992294;28;20238;-70
2023/04/13 11:07:50;;;;;;;4.85;3.47;;;;;;;18.18;25.56;94044.50;4988649;28;20215;-71
2023/04/13 11:10:26;;;;;;;7.40;3.85;;;;;;;18.35;25.38;94044.72;4987524;28;20228;-71
2023/04/13 11:12:54;;;;;;;7.13;3.80;;;;;;;18.42;25.54;94038.28;4990223;28;20222;-71
2023/04/13 11:15:24;;;;;;;6.50;3.83;;;;;;;18.45;25.94;94040.50;4992567;28;20250;-71
2023/04/13 11:17:58;;;;;;;4.38;3.60;;;;;;;18.62;25.45;94034.53;4982809;28;20204;-71
2023/04/13 11:20:34;;;;;;;8.10;3.95;;;;;;;18.76;25.18;94024.53;4984135;28;20223;-71
2023/04/13 11:23:04;;;;;;;11.57;4.28;;;;;;;18.60;25.22;94023.28;4992312;28;20243;-71
2023/04/13 11:25:32;;;;;;;6.13;4.10;;;;;;;18.67;25.06;94016.84;4980989;28;20220;-71
2023/04/13 11:28:02;;;;;;;6.20;3.67;;;;;;;18.91;25.62;94028.41;4990139;28;20219;-71
2023/04/13 11:30:28;;;;;;;7.00;3.80;;;;;;;19.09;24.51;94026.75;4990509;28;20194;-71
2023/04/13 11:32:57;;;;;;;5.55;3.22;;;;;;;18.69;24.84;94020.09;4983698;28;20263;-71
2023/04/13 11:35:22;;;;;;;5.05;3.13;;;;;;;18.53;24.90;94012.75;5003386;28;20231;-71
2023/04/13 11:37:53;;;;;;;9.20;3.58;;;;;;;18.82;25.30;94018.31;4999713;28;20293;-71